Terminal Aerodrome Forecast
Issued by NWS

Current Version | Previous Version | Text Only | Print | Product List | Glossary On
Versions: 1 2 3 4 5 6 7 8 9 10 11 12
000
FTUS45 KREV 292320
TAFTRK
TAF
KTRK 292320Z 3000/3024 24012G22KT P6SM SCT090
     FM300300 23006KT P6SM SCT100 WS020/24035KT
     FM301600 20015G25KT P6SM SCT060 BKN100
     FM302000 22016G28KT P6SM SCT060 BKN100=

USA.gov is the U.S. government's official web portal to all federal, state and local government web resources and services.